Time;durP1;ratioP1;P1;durP2;ratioP2;P2;SDS_P1;SDS_P2;PMS_P1;PMS_P2;Temp;Humidity;BMP_temperature;BMP_pressure;BME280_temperature;BME280_humidity;BME280_pressure;Samples;Min_cycle;Max_cycle;Signal;HPM_P1;HPM_P2
2022/04/14 00:02:09;;;;;;;335.70;309.05;;;11.90;99.90;;;;;;5151534;27;20046;-82
2022/04/14 00:04:35;;;;;;;374.80;344.27;;;11.90;99.90;;;;;;5137665;27;20051;-82
2022/04/14 00:07:02;;;;;;;288.23;262.77;;;11.80;99.90;;;;;;5119065;27;20035;-83
2022/04/14 00:09:28;;;;;;;129.00;118.50;;;11.90;99.90;;;;;;5142017;27;20049;-83
2022/04/14 00:11:55;;;;;;;212.70;196.15;;;11.80;99.90;;;;;;5143581;27;20043;-83
2022/04/14 00:14:21;;;;;;;170.20;156.27;;;11.80;99.90;;;;;;5128619;27;20131;-82
2022/04/14 00:16:47;;;;;;;133.27;121.90;;;11.80;99.90;;;;;;5151197;27;20475;-84
2022/04/14 00:19:13;;;;;;;188.57;173.35;;;11.70;99.90;;;;;;5119827;27;20073;-83
2022/04/14 00:21:39;;;;;;;145.57;133.02;;;11.70;99.90;;;;;;5135162;27;20424;-83
2022/04/14 00:24:05;;;;;;;112.63;101.35;;;11.70;99.90;;;;;;5137929;27;20039;-84
2022/04/14 00:26:31;;;;;;;122.60;112.18;;;11.70;99.90;;;;;;5141887;27;20092;-84
2022/04/14 00:28:56;;;;;;;119.57;109.05;;;12.40;99.90;;;;;;5124950;27;20451;-82
2022/04/14 00:31:22;;;;;;;93.10;84.28;;;11.60;99.90;;;;;;5148024;27;20126;-83
2022/04/14 00:33:49;;;;;;;99.55;89.80;;;11.60;99.90;;;;;;5143501;27;20038;-83
2022/04/14 00:36:14;;;;;;;70.65;64.35;;;11.60;99.90;;;;;;5147676;27;20434;-83
2022/04/14 00:38:40;;;;;;;90.55;83.38;;;11.70;99.90;;;;;;5153285;27;20089;-82
2022/04/14 00:41:06;;;;;;;79.43;71.68;;;11.60;99.90;;;;;;5126175;27;20043;-83
2022/04/14 00:43:33;;;;;;;100.53;91.80;;;11.50;99.90;;;;;;5141448;27;20046;-82
2022/04/14 00:46:00;;;;;;;112.95;102.88;;;11.50;99.90;;;;;;5137786;27;20039;-82
2022/04/14 00:48:27;;;;;;;49.25;44.42;;;11.50;99.90;;;;;;5136968;27;20119;-83
2022/04/14 00:50:53;;;;;;;83.72;77.25;;;11.50;99.90;;;;;;5140523;27;20491;-83
2022/04/14 00:53:21;;;;;;;53.75;48.83;;;11.50;99.90;;;;;;5130487;27;20057;-82
2022/04/14 00:55:47;;;;;;;74.45;67.90;;;11.50;99.90;;;;;;5139022;27;20100;-84
2022/04/14 00:58:13;;;;;;;25.73;13.27;;;11.50;99.90;;;;;;5139014;27;20418;-82
2022/04/14 01:00:38;;;;;;;21.23;12.38;;;11.40;99.90;;;;;;5148849;27;20043;-82
2022/04/14 01:03:05;;;;;;;26.65;14.02;;;11.40;99.90;;;;;;5110375;27;20054;-83
2022/04/14 01:05:31;;;;;;;25.25;12.60;;;11.30;99.90;;;;;;5124263;27;20504;-83
2022/04/14 01:07:57;;;;;;;23.88;12.88;;;11.30;99.90;;;;;;5141568;27;20134;-82
2022/04/14 01:10:25;;;;;;;24.02;14.02;;;11.30;99.90;;;;;;5139646;27;20043;-83
2022/04/14 01:12:52;;;;;;;28.33;14.95;;;11.30;99.90;;;;;;5138860;27;20146;-83
2022/04/14 01:15:18;;;;;;;20.58;13.32;;;11.30;99.90;;;;;;5106944;27;20035;-83
2022/04/14 01:17:44;;;;;;;40.20;34.80;;;11.30;99.90;;;;;;5133409;27;20175;-82
2022/04/14 01:20:13;;;;;;;50.67;46.03;;;11.40;99.90;;;;;;5138708;27;20091;-82
2022/04/14 01:23:02;;;;;;;64.82;59.90;;;11.20;99.90;;;;;;5146866;27;20046;-82
2022/04/14 01:25:28;;;;;;;49.67;45.13;;;11.20;99.90;;;;;;5146410;27;20039;-82
2022/04/14 01:27:54;;;;;;;58.03;52.92;;;11.20;99.90;;;;;;5125012;27;20121;-82
2022/04/14 01:30:20;;;;;;;52.95;47.95;;;11.40;99.90;;;;;;5129944;27;20378;-82
2022/04/14 01:32:46;;;;;;;55.28;49.72;;;11.30;99.90;;;;;;5141619;27;20053;-82
2022/04/14 01:35:12;;;;;;;67.28;61.75;;;11.00;99.90;;;;;;5139555;27;20035;-83
2022/04/14 01:37:38;;;;;;;88.50;82.10;;;11.40;99.90;;;;;;5143301;27;20042;-82
2022/04/14 01:40:04;;;;;;;72.32;66.85;;;10.90;99.90;;;;;;5147810;27;20031;-83
2022/04/14 01:42:30;;;;;;;69.85;64.20;;;10.80;99.90;;;;;;5139575;27;20051;-83
2022/04/14 01:44:56;;;;;;;73.45;67.80;;;10.70;99.90;;;;;;5126074;27;20050;-83
2022/04/14 01:47:21;;;;;;;84.95;78.60;;;11.80;99.90;;;;;;5143308;27;20082;-82
2022/04/14 01:49:47;;;;;;;63.17;57.78;;;10.60;99.90;;;;;;5132429;27;20047;-83
2022/04/14 01:52:13;;;;;;;68.53;62.90;;;10.50;99.90;;;;;;5140912;27;20042;-82
2022/04/14 01:54:39;;;;;;;73.93;67.75;;;10.50;99.90;;;;;;5139438;27;20042;-82
2022/04/14 01:57:05;;;;;;;75.22;69.82;;;10.40;99.90;;;;;;5139344;27;20355;-82
2022/04/14 01:59:30;;;;;;;73.55;67.90;;;10.50;99.90;;;;;;5144979;27;20040;-82
2022/04/14 02:01:56;;;;;;;69.55;64.18;;;11.60;99.90;;;;;;5134758;27;21650;-83
2022/04/14 02:04:22;;;;;;;47.33;43.17;;;10.50;99.90;;;;;;5098798;27;20451;-82
2022/04/14 02:06:47;;;;;;;57.17;52.40;;;10.50;99.90;;;;;;5130816;27;20391;-82
2022/04/14 02:09:13;;;;;;;49.03;44.22;;;10.50;99.90;;;;;;5148623;27;20316;-82
2022/04/14 02:11:39;;;;;;;51.03;46.13;;;11.00;99.90;;;;;;5147221;27;20051;-82
2022/04/14 02:14:05;;;;;;;57.25;52.05;;;10.50;99.90;;;;;;5143567;27;20482;-84
2022/04/14 02:16:31;;;;;;;46.40;41.58;;;10.50;99.90;;;;;;5114770;28;20144;-81
2022/04/14 02:18:56;;;;;;;38.72;34.17;;;10.50;99.90;;;;;;5126813;27;20051;-82
2022/04/14 02:21:22;;;;;;;41.60;36.40;;;11.50;1.00;;;;;;5148845;27;20061;-82
2022/04/14 02:23:48;;;;;;;47.22;42.67;;;10.50;1.00;;;;;;5133381;27;20083;-83
2022/04/14 02:26:15;;;;;;;75.40;69.03;;;11.30;99.90;;;;;;5136499;27;20050;-82
2022/04/14 02:28:41;;;;;;;110.60;92.53;;;10.50;99.90;;;;;;5136264;27;20051;-82
2022/04/14 02:31:07;;;;;;;81.68;75.13;;;10.50;99.90;;;;;;5115692;27;20046;-83
2022/04/14 02:33:33;;;;;;;80.35;73.75;;;10.50;99.90;;;;;;5141360;27;20039;-83
2022/04/14 02:35:59;;;;;;;69.20;63.40;;;10.40;99.90;;;;;;5134572;27;20039;-83
2022/04/14 02:38:24;;;;;;;66.68;61.13;;;10.40;99.90;;;;;;5135992;27;20039;-83
2022/04/14 02:40:50;;;;;;;64.70;59.20;;;11.00;99.90;;;;;;5144826;27;20043;-83
2022/04/14 02:43:16;;;;;;;71.47;65.57;;;10.20;99.90;;;;;;5142764;27;20070;-83
2022/04/14 02:45:41;;;;;;;33.33;19.88;;;10.20;99.90;;;;;;5138779;27;20043;-83
2022/04/14 02:48:07;;;;;;;39.72;22.20;;;10.20;99.90;;;;;;5140213;27;20118;-83
2022/04/14 02:50:33;;;;;;;37.17;20.67;;;10.30;99.90;;;;;;5140694;27;20039;-82
2022/04/14 02:52:59;;;;;;;28.75;20.42;;;10.20;99.90;;;;;;5132966;27;20429;-83
2022/04/14 02:55:24;;;;;;;37.13;21.73;;;10.10;99.90;;;;;;5148721;27;20067;-83
2022/04/14 02:57:50;;;;;;;29.83;20.77;;;10.10;99.90;;;;;;5150696;27;20092;-82
2022/04/14 03:00:17;;;;;;;39.85;23.45;;;10.00;99.90;;;;;;5152624;27;20069;-83
2022/04/14 03:02:43;;;;;;;33.53;24.60;;;10.00;99.90;;;;;;5160017;27;20051;-85
2022/04/14 03:05:09;;;;;;;34.08;24.90;;;10.60;99.90;;;;;;5141354;27;20047;-83
2022/04/14 03:07:36;;;;;;;40.95;24.17;;;9.90;99.90;;;;;;5146041;27;20035;-82
2022/04/14 03:10:03;;;;;;;44.63;25.77;;;9.90;99.90;;;;;;5148838;27;20090;-82
2022/04/14 03:12:50;;;;;;;36.92;24.65;;;9.90;1.00;;;;;;5142783;27;20083;-85
2022/04/14 03:15:16;;;;;;;50.13;27.10;;;10.00;1.00;;;;;;5148500;27;20046;-83
2022/04/14 03:17:42;;;;;;;38.47;27.05;;;10.30;1.00;;;;;;5146167;27;20043;-82
2022/04/14 03:20:09;;;;;;;38.88;27.17;;;10.00;1.00;;;;;;5152481;27;20420;-85
2022/04/14 03:22:36;;;;;;;46.03;28.05;;;10.00;1.00;;;;;;5142793;27;20050;-83
2022/04/14 03:25:07;;;;;;;39.33;27.08;;;9.90;1.00;;;;;;5137747;27;20525;-85
2022/04/14 03:27:33;;;;;;;49.15;29.98;;;9.90;1.00;;;;;;5128373;27;20431;-82
2022/04/14 03:29:59;;;;;;;47.20;30.15;;;9.90;1.00;;;;;;5139601;27;20047;-83
2022/04/14 03:32:25;;;;;;;47.78;31.50;;;9.80;1.00;;;;;;5127549;27;20122;-83
2022/04/14 03:34:52;;;;;;;46.10;29.60;;;9.90;1.00;;;;;;5140152;27;20125;-83
2022/04/14 03:37:18;;;;;;;52.25;32.80;;;9.80;1.00;;;;;;5134527;27;20042;-83
2022/04/14 03:39:44;;;;;;;46.95;30.48;;;10.40;99.90;;;;;;5135555;27;20038;-83
2022/04/14 03:42:09;;;;;;;50.13;30.83;;;9.70;99.90;;;;;;5141879;27;20563;-83
2022/04/14 03:44:35;;;;;;;51.20;32.60;;;9.80;1.00;;;;;;5141100;27;20432;-83
2022/04/14 03:47:00;;;;;;;51.17;31.90;;;9.80;1.00;;;;;;5141300;27;20103;-83
2022/04/14 03:49:26;;;;;;;55.60;35.95;;;10.70;1.00;;;;;;5114763;27;20068;-83
2022/04/14 03:51:54;;;;;;;54.90;34.83;;;9.80;38.30;;;;;;5143200;27;20051;-83
2022/04/14 03:54:20;;;;;;;53.78;34.78;;;9.70;1.50;;;;;;5146893;27;20047;-83
2022/04/14 03:56:47;;;;;;;58.90;33.05;;;9.70;1.00;;;;;;5149499;27;20195;-84
2022/04/14 03:59:13;;;;;;;58.55;34.20;;;9.60;1.00;;;;;;5149553;27;20058;-84
2022/04/14 04:01:39;;;;;;;63.45;37.22;;;9.50;1.00;;;;;;5144893;27;20046;-83
2022/04/14 04:04:05;;;;;;;56.92;36.35;;;10.40;1.00;;;;;;5142162;27;20049;-87
2022/04/14 04:06:31;;;;;;;54.58;37.25;;;10.30;99.90;;;;;;5137403;27;20043;-83
2022/04/14 04:08:57;;;;;;;67.40;40.08;;;9.60;99.90;;;;;;5136404;27;20043;-82
2022/04/14 04:11:23;;;;;;;58.17;43.00;;;10.30;99.90;;;;;;5143066;27;20054;-82
2022/04/14 04:13:48;;;;;;;63.08;41.92;;;9.20;99.90;;;;;;5134476;27;20061;-83
2022/04/14 04:16:14;;;;;;;59.30;42.15;;;9.20;99.90;;;;;;5148091;27;20537;-83
2022/04/14 04:18:40;;;;;;;54.75;46.38;;;10.10;99.90;;;;;;5144305;27;20479;-83
2022/04/14 04:21:05;;;;;;;57.92;47.30;;;9.10;99.90;;;;;;5145693;27;20039;-84
2022/04/14 04:23:31;;;;;;;62.03;48.85;;;9.00;99.90;;;;;;5134620;27;20049;-83
2022/04/14 04:25:57;;;;;;;61.63;47.20;;;9.10;99.90;;;;;;5137727;27;20051;-82
2022/04/14 04:28:22;;;;;;;70.25;50.05;;;8.90;99.90;;;;;;5114608;27;20499;-84
2022/04/14 04:30:48;;;;;;;71.03;52.55;;;9.60;99.90;;;;;;5145380;27;20047;-83
2022/04/14 04:33:14;;;;;;;77.03;49.28;;;10.10;99.90;;;;;;5134830;27;20071;-83
2022/04/14 04:35:39;;;;;;;69.63;44.42;;;9.60;99.90;;;;;;5140248;27;20122;-83
2022/04/14 04:38:05;;;;;;;73.95;46.25;;;9.00;99.90;;;;;;5149629;27;20039;-84
2022/04/14 04:40:31;;;;;;;69.32;45.72;;;9.20;99.90;;;;;;5146702;27;20121;-84
2022/04/14 04:42:57;;;;;;;70.85;44.90;;;9.80;99.90;;;;;;5141122;27;20039;-84
2022/04/14 04:45:22;;;;;;;73.10;55.92;;;9.70;99.90;;;;;;5144320;27;20111;-84
2022/04/14 04:47:48;;;;;;;75.93;54.72;;;8.80;99.90;;;;;;5133853;27;20239;-84
2022/04/14 04:50:14;;;;;;;80.80;54.35;;;8.80;99.90;;;;;;5122212;27;20043;-84
2022/04/14 04:52:39;;;;;;;67.07;50.70;;;8.70;99.90;;;;;;5121435;27;20352;-83
2022/04/14 04:55:06;;;;;;;72.57;55.58;;;9.70;99.90;;;;;;5140392;27;20039;-84
2022/04/14 04:57:31;;;;;;;82.43;51.67;;;8.60;99.90;;;;;;5150005;27;20094;-82
2022/04/14 04:59:57;;;;;;;105.80;59.22;;;8.80;1.00;;;;;;5146592;27;20115;-83
2022/04/14 05:02:23;;;;;;;77.40;50.40;;;9.40;1.00;;;;;;5151398;27;20059;-82
2022/04/14 05:04:48;;;;;;;73.35;47.83;;;8.80;1.00;;;;;;5141843;27;20042;-83
2022/04/14 05:07:14;;;;;;;93.30;51.80;;;8.80;99.90;;;;;;5138732;27;20065;-83
2022/04/14 05:09:39;;;;;;;73.47;49.65;;;9.70;99.90;;;;;;5131752;27;20039;-84
2022/04/14 05:12:05;;;;;;;159.70;144.32;;;8.80;99.90;;;;;;5146594;27;20096;-83
2022/04/14 05:14:31;;;;;;;175.18;156.93;;;8.90;1.00;;;;;;5126440;27;20389;-84
2022/04/14 05:16:57;;;;;;;97.93;47.08;;;9.10;1.00;;;;;;5138513;27;20070;-84
2022/04/14 05:19:22;;;;;;;92.28;48.70;;;9.10;1.00;;;;;;5121302;27;20471;-84
2022/04/14 05:21:48;;;;;;;96.03;53.22;;;9.00;1.00;;;;;;5148588;27;20039;-84
2022/04/14 05:24:17;;;;;;;116.28;104.22;;;8.90;1.00;;;;;;5151394;27;20051;-84
2022/04/14 05:26:42;;;;;;;203.48;186.23;;;8.90;1.00;;;;;;5126585;27;20417;-84
2022/04/14 05:29:09;;;;;;;119.25;105.70;;;8.90;99.90;;;;;;5133994;27;20041;-83
2022/04/14 05:31:35;;;;;;;118.95;105.53;;;9.10;1.00;;;;;;5148864;27;20351;-83
2022/04/14 05:34:01;;;;;;;134.95;120.53;;;9.20;99.90;;;;;;5132472;27;20119;-84
2022/04/14 05:36:26;;;;;;;155.38;140.15;;;9.20;61.30;;;;;;5143060;27;20043;-83
2022/04/14 05:38:52;;;;;;;169.65;154.32;;;9.20;4.80;;;;;;5152066;27;20451;-83
2022/04/14 05:41:18;;;;;;;164.35;147.95;;;9.20;1.00;;;;;;5145518;27;20038;-83
2022/04/14 05:43:43;;;;;;;172.63;156.18;;;9.20;1.00;;;;;;5152895;27;20102;-83
2022/04/14 05:46:09;;;;;;;199.48;180.48;;;10.10;1.00;;;;;;5120842;27;20043;-83
2022/04/14 05:48:35;;;;;;;196.25;177.25;;;9.30;1.00;;;;;;5117996;27;20051;-83
2022/04/14 05:51:00;;;;;;;215.70;195.32;;;9.40;1.00;;;;;;5152518;27;20051;-83
2022/04/14 05:53:27;;;;;;;194.88;176.95;;;9.40;99.90;;;;;;5152088;27;20057;-84
2022/04/14 05:55:53;;;;;;;205.32;186.15;;;9.50;99.90;;;;;;5127417;28;20047;-83
2022/04/14 05:58:18;;;;;;;220.40;199.15;;;9.50;99.90;;;;;;5149941;27;20043;-83
2022/04/14 06:00:44;;;;;;;234.18;213.25;;;10.50;99.90;;;;;;5129431;28;20054;-83
2022/04/14 06:03:10;;;;;;;248.75;227.38;;;10.20;99.90;;;;;;5113041;28;20043;-83
2022/04/14 06:05:36;;;;;;;262.92;240.93;;;9.60;99.90;;;;;;5129594;27;20425;-84
2022/04/14 06:08:02;;;;;;;335.30;305.60;;;9.90;99.90;;;;;;5150553;27;20043;-83
2022/04/14 06:10:28;;;;;;;398.80;367.60;;;9.70;99.90;;;;;;5133427;27;20126;-83
2022/04/14 06:12:55;;;;;;;325.80;298.60;;;9.70;99.90;;;;;;5152384;27;20180;-83
2022/04/14 06:15:21;;;;;;;583.03;538.80;;;9.90;99.90;;;;;;5140727;27;20118;-84
2022/04/14 06:17:47;;;;;;;574.00;528.50;;;9.80;99.90;;;;;;5140448;27;20039;-83
2022/04/14 06:20:14;;;;;;;801.67;739.17;;;9.90;99.90;;;;;;5132935;27;20035;-83
2022/04/14 06:22:41;;;;;;;686.60;625.63;;;9.90;99.90;;;;;;5132778;27;20255;-83
2022/04/14 06:25:12;;;;;;;618.80;573.10;;;10.00;99.90;;;;;;5146938;27;20039;-83
2022/04/14 06:27:42;;;;;;;603.08;558.28;;;10.00;99.90;;;;;;5144749;27;20123;-84
2022/04/14 06:30:10;;;;;;;638.90;592.83;;;10.10;99.90;;;;;;5146999;27;20525;-84
2022/04/14 06:32:36;;;;;;;702.00;652.35;;;10.20;99.90;;;;;;5155143;27;20059;-83
2022/04/14 06:35:06;;;;;;;678.25;629.80;;;10.20;99.90;;;;;;5136571;27;20502;-84
2022/04/14 06:37:35;;;;;;;702.20;651.83;;;10.30;99.90;;;;;;5155496;27;20085;-83
2022/04/14 06:40:02;;;;;;;685.30;635.08;;;11.30;99.90;;;;;;5155406;27;20563;-83
2022/04/14 06:42:28;;;;;;;642.67;595.67;;;10.60;99.90;;;;;;5146466;27;20487;-84
2022/04/14 06:44:59;;;;;;;612.10;566.22;;;11.10;99.90;;;;;;5135326;27;20119;-84
2022/04/14 06:47:28;;;;;;;593.85;549.40;;;11.00;99.90;;;;;;5116695;27;20047;-83
2022/04/14 06:49:54;;;;;;;501.85;462.65;;;11.40;99.90;;;;;;5135374;27;20066;-83
2022/04/14 06:52:24;;;;;;;596.55;552.38;;;12.00;99.90;;;;;;5151689;27;20493;-85
2022/04/14 06:54:50;;;;;;;616.70;572.42;;;11.60;99.90;;;;;;5135272;27;20150;-83
2022/04/14 06:57:16;;;;;;;513.30;477.20;;;11.70;99.90;;;;;;5153758;27;20066;-84
2022/04/14 06:59:42;;;;;;;463.17;430.98;;;11.80;99.90;;;;;;5155780;27;20045;-83
2022/04/14 07:02:08;;;;;;;517.08;480.17;;;11.80;99.90;;;;;;5155699;27;20046;-85
2022/04/14 07:04:34;;;;;;;445.85;414.90;;;11.80;99.90;;;;;;5135833;27;20336;-83
2022/04/14 07:06:59;;;;;;;492.85;456.98;;;12.10;99.90;;;;;;5136479;27;20091;-83
2022/04/14 07:09:29;;;;;;;512.75;477.65;;;12.40;99.90;;;;;;5143845;27;20050;-83
2022/04/14 07:11:56;;;;;;;507.52;473.10;;;12.60;98.60;;;;;;5134693;27;20058;-84
2022/04/14 07:14:21;;;;;;;485.73;453.35;;;12.80;90.50;;;;;;5155330;27;20078;-86
2022/04/14 07:16:47;;;;;;;518.67;484.48;;;12.90;78.60;;;;;;5135743;27;20084;-85
2022/04/14 07:19:13;;;;;;;483.05;451.15;;;13.00;64.10;;;;;;5143921;27;20035;-84
2022/04/14 07:21:39;;;;;;;470.70;440.13;;;13.00;63.00;;;;;;5155035;27;20062;-84
2022/04/14 07:24:05;;;;;;;528.38;493.30;;;13.00;64.50;;;;;;5154145;27;20049;-84
2022/04/14 07:26:30;;;;;;;466.85;436.00;;;13.00;61.30;;;;;;5136674;27;20034;-84
2022/04/14 07:28:56;;;;;;;504.30;470.33;;;13.00;63.10;;;;;;5136491;27;20474;-84
2022/04/14 07:31:22;;;;;;;557.60;519.53;;;13.10;66.40;;;;;;5115752;27;20047;-83
2022/04/14 07:33:47;;;;;;;471.05;439.88;;;13.90;33.10;;;;;;5145083;27;20042;-83
2022/04/14 07:36:18;;;;;;;406.27;381.00;;;15.30;22.20;;;;;;5154577;27;20134;-83
2022/04/14 07:38:44;;;;;;;643.58;599.55;;;16.60;1.10;;;;;;5154589;27;20243;-83
2022/04/14 07:41:09;;;;;;;588.78;544.65;;;17.70;1.00;;;;;;5154567;27;20042;-84
2022/04/14 07:43:35;;;;;;;713.30;660.53;;;18.40;1.00;;;;;;5153701;27;20456;-84
2022/04/14 07:46:01;;;;;;;720.67;664.75;;;18.70;1.00;;;;;;5154387;27;20042;-84
2022/04/14 07:48:27;;;;;;;540.92;504.60;;;19.60;1.00;;;;;;5153622;27;20123;-84
2022/04/14 07:50:53;;;;;;;510.73;475.33;;;20.20;1.00;;;;;;5154109;27;20061;-84
2022/04/14 07:53:18;;;;;;;491.10;457.65;;;20.30;1.00;;;;;;5127218;27;20043;-84
2022/04/14 07:55:44;;;;;;;467.20;435.25;;;20.70;1.00;;;;;;5143259;27;20046;-84
2022/04/14 07:58:10;;;;;;;572.80;533.03;;;21.70;1.00;;;;;;5154407;27;20046;-84
2022/04/14 08:00:39;;;;;;;403.48;376.90;;;22.50;1.00;;;;;;5154264;27;20383;-84
2022/04/14 08:03:06;;;;;;;401.15;376.10;;;22.40;1.00;;;;;;5152471;27;20042;-84
2022/04/14 08:05:37;;;;;;;560.50;520.75;;;23.20;1.00;;;;;;5146889;27;20474;-85
2022/04/14 08:08:05;;;;;;;633.65;587.45;;;23.50;1.00;;;;;;5118369;27;20046;-84
2022/04/14 08:10:31;;;;;;;553.85;515.83;;;23.70;1.00;;;;;;5154068;27;20042;-83
2022/04/14 08:12:57;;;;;;;536.90;496.52;;;24.00;1.00;;;;;;5154203;27;20095;-84
2022/04/14 08:15:23;;;;;;;510.50;472.65;;;22.80;1.00;;;;;;5148467;27;20050;-83
2022/04/14 08:17:49;;;;;;;449.63;417.20;;;23.90;1.00;;;;;;5135091;27;20046;-84
2022/04/14 08:20:16;;;;;;;480.30;445.90;;;24.20;1.00;;;;;;5138338;27;20407;-83
2022/04/14 08:23:03;;;;;;;489.13;458.90;;;24.70;1.00;;;;;;5098124;27;20050;-83
2022/04/14 08:25:33;;;;;;;500.80;467.25;;;25.10;1.00;;;;;;5133631;27;20562;-86
2022/04/14 08:28:01;;;;;;;676.65;631.35;;;24.80;1.00;;;;;;5154190;27;20565;-83
2022/04/14 08:30:29;;;;;;;742.13;689.63;;;25.00;1.00;;;;;;5152584;27;20130;-83
2022/04/14 08:32:56;;;;;;;738.80;688.53;;;23.80;1.00;;;;;;5118331;27;20121;-83
2022/04/14 08:35:21;;;;;;;766.33;713.58;;;24.00;1.00;;;;;;5135418;27;20051;-84
2022/04/14 08:37:49;;;;;;;668.50;622.35;;;24.90;1.00;;;;;;5134962;27;20047;-83
2022/04/14 08:40:18;;;;;;;766.15;711.88;;;24.50;1.00;;;;;;5153270;27;20137;-84
2022/04/14 08:43:11;;;;;;;783.42;727.72;;;25.30;1.00;;;;;;5133128;27;20057;-83
2022/04/14 08:45:48;;;;;;;655.80;610.78;;;25.70;1.00;;;;;;5116143;27;20039;-83
2022/04/14 08:48:15;;;;;;;686.42;638.63;;;26.20;1.00;;;;;;5132573;27;20512;-84
2022/04/14 08:50:46;;;;;;;816.83;753.88;;;26.50;1.00;;;;;;5114789;27;20087;-84
2022/04/14 08:53:12;;;;;;;824.75;763.58;;;25.00;1.00;;;;;;5142117;27;20046;-83
2022/04/14 08:55:42;;;;;;;672.83;624.25;;;25.80;1.00;;;;;;5120709;27;20515;-84
2022/04/14 08:58:17;;;;;;;673.63;624.67;;;26.50;1.00;;;;;;5122812;27;20126;-84
2022/04/14 09:00:43;;;;;;;601.08;558.85;;;26.20;1.00;;;;;;5139376;27;20046;-84
2022/04/14 09:03:08;;;;;;;581.00;541.92;;;25.70;1.00;;;;;;5149992;27;20051;-84
2022/04/14 09:05:34;;;;;;;595.63;553.83;;;26.00;1.00;;;;;;5134219;27;20125;-84
2022/04/14 09:08:00;;;;;;;592.45;551.25;;;26.30;1.00;;;;;;5152149;27;20083;-83
2022/04/14 09:10:27;;;;;;;753.20;698.13;;;24.30;1.00;;;;;;5145705;27;20043;-84
2022/04/14 09:12:53;;;;;;;548.85;510.60;;;25.30;1.00;;;;;;5131689;27;20141;-83
2022/04/14 09:15:20;;;;;;;565.05;525.30;;;24.20;1.00;;;;;;5146744;27;20490;-84
2022/04/14 09:17:46;;;;;;;578.17;536.67;;;24.10;1.00;;;;;;5122684;27;20043;-84
2022/04/14 09:20:37;;;;;;;562.03;521.58;;;25.30;1.00;;;;;;5113649;28;20250;-83
2022/04/14 09:23:15;;;;;;;523.30;486.92;;;25.80;1.00;;;;;;5145679;27;20087;-84
2022/04/14 09:25:42;;;;;;;544.35;507.15;;;25.80;1.00;;;;;;5152791;27;20086;-83
2022/04/14 09:28:10;;;;;;;552.53;513.45;;;24.80;1.00;;;;;;5152417;27;20082;-83
2022/04/14 09:30:35;;;;;;;561.20;521.00;;;26.20;1.00;;;;;;5152508;27;20082;-84
2022/04/14 09:33:02;;;;;;;687.22;634.75;;;26.30;1.00;;;;;;5123499;27;20090;-83
2022/04/14 09:35:31;;;;;;;517.25;481.05;;;25.50;99.90;;;;;;5125192;27;20043;-83
2022/04/14 09:38:07;;;;;;;582.05;539.95;;;24.00;1.00;;;;;;5131998;27;20055;-84
2022/04/14 09:40:33;;;;;;;422.83;390.13;;;25.40;1.00;;;;;;5152853;27;20050;-83
2022/04/14 09:42:59;;;;;;;526.75;486.50;;;25.80;1.00;;;;;;5144827;27;20043;-84
2022/04/14 09:45:30;;;;;;;480.73;445.70;;;25.60;99.90;;;;;;5143780;27;20042;-84
2022/04/14 09:48:03;;;;;;;490.58;452.88;;;25.50;99.90;;;;;;5115464;27;20447;-82
2022/04/14 09:50:39;;;;;;;517.60;479.13;;;25.00;99.90;;;;;;5131784;27;20471;-82
2022/04/14 09:53:14;;;;;;;329.45;305.90;;;25.30;99.90;;;;;;5131539;28;20047;-84
2022/04/14 09:55:55;;;;;;;483.30;448.17;;;25.40;99.90;;;;;;5131595;28;20127;-84
2022/04/14 09:58:23;;;;;;;476.63;440.85;;;25.20;99.90;;;;;;5150115;27;20087;-84
2022/04/14 10:00:53;;;;;;;;;;;25.50;99.90;;;;;;5142401;27;20039;-84
2022/04/14 10:03:19;;;;;;;503.20;464.55;;;25.80;99.90;;;;;;5133344;27;19915;-84
2022/04/14 10:05:50;;;;;;;541.33;501.27;;;25.20;99.90;;;;;;5116757;27;20043;-84
2022/04/14 10:08:16;;;;;;;616.72;571.38;;;25.40;99.90;;;;;;5140597;27;20066;-84
2022/04/14 10:10:47;;;;;;;826.28;764.15;;;25.40;99.90;;;;;;5135909;27;20096;-83
2022/04/14 10:13:15;;;;;;;765.15;710.78;;;24.40;99.90;;;;;;5135936;27;20494;-84
2022/04/14 10:15:46;;;;;;;543.63;500.63;;;24.30;99.90;;;;;;5131330;27;20047;-84
2022/04/14 10:18:14;;;;;;;463.42;427.65;;;24.40;99.90;;;;;;5155194;27;20039;-82
2022/04/14 10:20:42;;;;;;;582.28;538.70;;;24.50;99.90;;;;;;5137093;27;20121;-82
2022/04/14 10:23:09;;;;;;;514.95;477.80;;;24.80;99.90;;;;;;5137681;27;20047;-83
2022/04/14 10:25:39;;;;;;;535.00;494.58;;;25.20;99.90;;;;;;5156274;27;20046;-82
2022/04/14 10:28:16;;;;;;;558.65;512.15;;;25.90;99.90;;;;;;5141611;27;20515;-83
2022/04/14 10:30:56;;;;;;;462.77;430.02;;;26.50;99.90;;;;;;5117147;27;20062;-84
2022/04/14 10:33:22;;;;;;;484.58;451.88;;;26.90;99.90;;;;;;5116963;27;20235;-83
2022/04/14 10:35:52;;;;;;;426.13;396.60;;;27.60;99.90;;;;;;5134739;27;20039;-83
2022/04/14 10:38:18;;;;;;;291.60;274.42;;;27.20;99.90;;;;;;5145690;27;20134;-83
2022/04/14 10:40:58;;;;;;;429.48;400.50;;;26.10;99.90;;;;;;5154599;27;20137;-84
2022/04/14 10:43:25;;;;;;;292.23;275.70;;;26.10;99.90;;;;;;5136304;27;20046;-83
2022/04/14 10:45:56;;;;;;;333.52;313.23;;;26.90;99.90;;;;;;5155501;27;20502;-82
2022/04/14 10:48:29;;;;;;;354.77;330.50;;;27.00;99.90;;;;;;5155130;27;20210;-83
2022/04/14 10:51:13;;;;;;;326.33;307.13;;;27.50;99.90;;;;;;5143663;27;20611;-83
2022/04/14 10:54:11;;;;;;;494.77;460.60;;;28.10;99.90;;;;;;5139161;27;20452;-83
2022/04/14 10:56:37;;;;;;;294.85;276.15;;;27.90;99.90;;;;;;5125668;27;20045;-82
2022/04/14 10:59:09;;;;;;;251.85;235.98;;;27.00;99.90;;;;;;5155746;27;20450;-82
2022/04/14 11:01:50;;;;;;;442.70;408.48;;;25.70;99.90;;;;;;5155668;27;20050;-82
2022/04/14 11:04:42;;;;;;;460.10;423.33;;;24.60;99.90;;;;;;5154041;27;20043;-83
2022/04/14 11:07:15;;;;;;;571.65;525.38;;;23.50;99.90;;;;;;5121857;27;20043;-82
2022/04/14 11:09:59;;;;;;;524.78;483.55;;;22.70;99.90;;;;;;5134733;27;20479;-83
2022/04/14 11:12:32;;;;;;;742.88;686.47;;;22.30;99.90;;;;;;5134868;27;20126;-83
2022/04/14 11:15:03;;;;;;;727.40;672.45;;;22.30;99.90;;;;;;5152444;27;20043;-82
2022/04/14 11:17:37;;;;;;;679.03;627.35;;;22.80;99.90;;;;;;5136764;27;20038;-83
2022/04/14 11:20:30;;;;;;;649.72;600.65;;;23.70;99.90;;;;;;5154818;27;20046;-82
2022/04/14 11:23:12;;;;;;;591.15;547.25;;;24.30;99.90;;;;;;5122687;27;20634;-83
2022/04/14 11:28:27;;;;;;;608.72;561.65;;;25.70;99.90;;;;;;5136684;27;20509;-83
2022/04/14 11:31:19;;;;;;;422.13;392.73;;;25.40;99.90;;;;;;5154036;27;20082;-83
2022/04/14 11:33:47;;;;;;;458.20;424.27;;;25.50;99.90;;;;;;5124360;27;20348;-83
2022/04/14 11:36:21;;;;;;;515.63;478.73;;;25.90;99.90;;;;;;5136027;27;20062;-84
2022/04/14 11:38:54;;;;;;;319.33;298.38;;;26.70;99.90;;;;;;5139528;27;20051;-83
2022/04/14 11:41:31;;;;;;;324.10;302.92;;;27.40;99.90;;;;;;5130670;27;20114;-84
2022/04/14 11:43:58;;;;;;;226.20;212.88;;;27.10;99.90;;;;;;5143896;27;20387;-83
2022/04/14 11:46:24;;;;;;;523.28;484.27;;;26.10;99.90;;;;;;5150217;27;20034;-84
2022/04/14 11:48:49;;;;;;;300.88;281.35;;;26.20;99.90;;;;;;5153322;27;20046;-83
2022/04/14 11:51:19;;;;;;;267.77;250.05;;;26.70;99.90;;;;;;5153206;27;20042;-83
2022/04/14 11:53:45;;;;;;;307.20;285.98;;;26.80;99.90;;;;;;5147664;27;20038;-83
2022/04/14 11:56:20;;;;;;;289.00;269.27;;;26.20;99.90;;;;;;5154109;27;20485;-84
2022/04/14 11:58:47;;;;;;;227.07;212.98;;;26.00;99.90;;;;;;5152909;27;20043;-83
2022/04/14 12:01:13;;;;;;;376.20;348.98;;;25.90;99.90;;;;;;5124362;27;20057;-83
2022/04/14 12:03:41;;;;;;;409.83;378.73;;;25.70;99.90;;;;;;5123619;27;20095;-83
2022/04/14 12:06:09;;;;;;;233.45;219.23;;;25.90;99.90;;;;;;5129817;27;20487;-83
2022/04/14 12:08:35;;;;;;;559.33;517.63;;;26.10;99.90;;;;;;5142201;27;20122;-82
2022/04/14 12:11:12;;;;;;;618.45;573.03;;;26.00;99.90;;;;;;5130272;27;20051;-84
2022/04/14 12:13:38;;;;;;;323.73;299.65;;;26.20;99.90;;;;;;5132611;27;20079;-83
2022/04/14 12:16:10;;;;;;;540.33;498.57;;;26.10;99.90;;;;;;5126730;27;20481;-83
2022/04/14 12:18:40;;;;;;;529.45;489.30;;;25.80;99.90;;;;;;5146947;27;20114;-81
2022/04/14 12:21:06;;;;;;;446.92;410.20;;;25.10;99.90;;;;;;5137012;27;20371;-82
2022/04/14 12:23:33;;;;;;;530.10;489.98;;;24.30;99.90;;;;;;5144452;27;20049;-82
2022/04/14 12:26:04;;;;;;;576.45;531.80;;;23.40;99.90;;;;;;5151920;27;20404;-82
2022/04/14 12:28:30;;;;;;;858.88;789.22;;;22.70;99.90;;;;;;5115402;27;20057;-84